Time;durP1;ratioP1;P1;durP2;ratioP2;P2;SDS_P1;SDS_P2;PMS_P1;PMS_P2;Temp;Humidity;BMP_temperature;BMP_pressure;BME280_temperature;BME280_humidity;BME280_pressure;Samples;Min_cycle;Max_cycle;Signal;HPM_P1;HPM_P2
2021/01/07 00:00:07;;;;;;;2.33;1.70;;;2.10;99.90;;;;;;5090852;28;20161;-70
2021/01/07 00:02:32;;;;;;;1.60;1.23;;;2.10;99.90;;;;;;5090450;28;20436;-70
2021/01/07 00:04:58;;;;;;;2.60;1.58;;;2.10;99.90;;;;;;5090847;28;20032;-70
2021/01/07 00:07:23;;;;;;;1.92;1.30;;;2.10;99.90;;;;;;5090484;28;20417;-70
2021/01/07 00:09:49;;;;;;;3.35;1.70;;;2.10;99.90;;;;;;5088790;28;20027;-70
2021/01/07 00:12:14;;;;;;;5.07;1.45;;;2.10;99.90;;;;;;5090516;28;20161;-70
2021/01/07 00:14:40;;;;;;;1.98;1.40;;;2.10;99.90;;;;;;5090393;28;20028;-70
2021/01/07 00:17:05;;;;;;;1.25;1.13;;;2.10;99.90;;;;;;5090496;28;20020;-70
2021/01/07 00:19:31;;;;;;;2.50;1.40;;;2.10;99.90;;;;;;5090544;28;20082;-70
2021/01/07 00:21:57;;;;;;;3.47;1.63;;;2.10;99.90;;;;;;5089945;28;20127;-69
2021/01/07 00:24:22;;;;;;;3.60;1.40;;;2.10;99.90;;;;;;5090104;28;20116;-69
2021/01/07 00:26:48;;;;;;;3.42;1.42;;;2.10;99.90;;;;;;5090645;28;20054;-69
2021/01/07 00:29:13;;;;;;;2.17;1.50;;;2.10;99.90;;;;;;5075112;28;20024;-70
2021/01/07 00:31:39;;;;;;;2.70;2.05;;;2.20;99.90;;;;;;5090782;28;20030;-69
2021/01/07 00:34:04;;;;;;;3.10;2.22;;;2.10;99.90;;;;;;5090509;28;20024;-69
2021/01/07 00:36:30;;;;;;;3.10;2.20;;;2.20;99.90;;;;;;5089624;28;20068;-70
2021/01/07 00:38:56;;;;;;;4.65;2.60;;;2.20;99.90;;;;;;5090488;28;20035;-70
2021/01/07 00:41:21;;;;;;;4.20;2.80;;;2.20;99.90;;;;;;5090081;28;20028;-69
2021/01/07 00:43:47;;;;;;;2.70;2.13;;;2.20;99.90;;;;;;5080344;28;20035;-69
2021/01/07 00:46:15;;;;;;;4.63;2.15;;;2.20;99.90;;;;;;5087661;28;20020;-69
2021/01/07 00:48:41;;;;;;;2.30;2.10;;;2.20;99.90;;;;;;5094574;28;20069;-70
2021/01/07 00:51:07;;;;;;;2.15;1.95;;;2.20;99.90;;;;;;5093589;28;20122;-69
2021/01/07 00:53:34;;;;;;;3.38;2.13;;;2.30;99.90;;;;;;5094551;28;20051;-69
2021/01/07 00:55:59;;;;;;;5.97;2.55;;;2.20;99.90;;;;;;5094271;28;20016;-69
2021/01/07 00:58:25;;;;;;;3.63;2.20;;;2.20;99.90;;;;;;5093167;28;20055;-69
2021/01/07 01:00:50;;;;;;;2.83;1.70;;;2.20;99.90;;;;;;5093969;28;20028;-69
2021/01/07 01:03:16;;;;;;;3.88;1.90;;;2.20;99.90;;;;;;5093654;28;20040;-69
2021/01/07 01:05:41;;;;;;;2.90;2.03;;;2.20;99.90;;;;;;5093238;28;20020;-69
2021/01/07 01:08:08;;;;;;;4.03;2.70;;;2.20;99.90;;;;;;5093938;28;20023;-71
2021/01/07 01:10:33;;;;;;;3.25;1.50;;;2.10;99.90;;;;;;5093530;28;20810;-71
2021/01/07 01:12:59;;;;;;;1.92;1.67;;;2.10;99.90;;;;;;5093564;28;20119;-69
2021/01/07 01:15:25;;;;;;;4.35;1.67;;;2.10;99.90;;;;;;5093386;28;20492;-70
2021/01/07 01:17:51;;;;;;;4.28;1.75;;;2.00;99.90;;;;;;5093737;28;20032;-70
2021/01/07 01:20:16;;;;;;;4.65;1.98;;;2.50;99.90;;;;;;5092581;28;20024;-70
2021/01/07 01:22:44;;;;;;;4.40;2.35;;;2.10;99.90;;;;;;5093772;28;20028;-67
2021/01/07 01:25:11;;;;;;;2.25;2.05;;;2.00;99.90;;;;;;5092483;28;20067;-70
2021/01/07 01:27:43;;;;;;;3.83;2.45;;;2.00;99.90;;;;;;5090554;28;20036;-68
2021/01/07 01:30:11;;;;;;;3.00;2.30;;;2.10;99.90;;;;;;5083618;28;20056;-68
2021/01/07 01:32:38;;;;;;;3.83;1.95;;;2.00;99.90;;;;;;5092750;28;20030;-68
2021/01/07 01:35:05;;;;;;;2.30;1.90;;;2.00;99.90;;;;;;5093617;28;20020;-68
2021/01/07 01:37:31;;;;;;;3.35;2.10;;;2.10;99.90;;;;;;5077550;28;20032;-69
2021/01/07 01:39:57;;;;;;;2.08;1.80;;;2.10;99.90;;;;;;5072837;28;20127;-68
2021/01/07 01:42:26;;;;;;;4.80;2.05;;;2.10;99.90;;;;;;5076356;28;20020;-68
2021/01/07 01:44:52;;;;;;;4.57;2.10;;;2.10;99.90;;;;;;5079277;28;20487;-68
2021/01/07 01:47:18;;;;;;;2.47;2.28;;;2.00;99.90;;;;;;5077971;28;20035;-68
2021/01/07 01:49:52;;;;;;;3.47;2.30;;;2.00;99.90;;;;;;5093112;28;20024;-69
2021/01/07 01:52:20;;;;;;;3.88;2.22;;;1.90;99.90;;;;;;5092521;28;20336;-68
2021/01/07 01:54:46;;;;;;;3.03;2.13;;;1.90;99.90;;;;;;5082089;28;20028;-68
2021/01/07 01:57:13;;;;;;;2.97;2.17;;;1.90;99.90;;;;;;5081818;28;20077;-68
2021/01/07 01:59:39;;;;;;;2.83;2.20;;;1.90;99.90;;;;;;5089679;28;20032;-68
2021/01/07 02:02:11;;;;;;;2.33;2.13;;;1.90;99.90;;;;;;5072647;28;20393;-69
2021/01/07 02:04:37;;;;;;;3.78;2.58;;;1.90;99.90;;;;;;5092606;28;20024;-68
2021/01/07 02:07:06;;;;;;;3.33;2.38;;;1.90;99.90;;;;;;5092871;28;20355;-68
2021/01/07 02:09:33;;;;;;;2.97;2.30;;;1.90;99.90;;;;;;5092260;28;20020;-68
2021/01/07 02:11:59;;;;;;;8.75;3.42;;;1.70;99.90;;;;;;5081007;28;20036;-68
2021/01/07 02:14:28;;;;;;;2.33;2.13;;;1.90;99.90;;;;;;5089334;28;20027;-68
2021/01/07 02:16:57;;;;;;;3.78;2.50;;;1.90;99.90;;;;;;5092699;28;20127;-68
2021/01/07 02:19:23;;;;;;;3.35;2.88;;;2.00;99.90;;;;;;5092854;28;20036;-68
2021/01/07 02:21:49;;;;;;;5.18;2.90;;;1.90;99.90;;;;;;5092819;28;20426;-68
2021/01/07 02:24:17;;;;;;;4.88;3.22;;;1.90;99.90;;;;;;5092317;28;20081;-68
2021/01/07 02:26:44;;;;;;;3.60;2.65;;;1.90;99.90;;;;;;5092124;28;20058;-68
2021/01/07 02:29:10;;;;;;;3.65;2.72;;;1.90;99.90;;;;;;5091588;28;20073;-68
2021/01/07 02:31:36;;;;;;;7.68;3.50;;;1.90;99.90;;;;;;5091701;28;20028;-68
2021/01/07 02:34:01;;;;;;;3.95;3.35;;;1.90;99.90;;;;;;5092087;28;20036;-68
2021/01/07 02:36:27;;;;;;;5.80;4.07;;;1.90;99.90;;;;;;5090987;28;20111;-69
2021/01/07 02:38:53;;;;;;;5.88;4.00;;;1.90;99.90;;;;;;5091769;28;20040;-68
2021/01/07 02:41:18;;;;;;;4.28;3.58;;;1.90;99.90;;;;;;5091756;28;20494;-68
2021/01/07 02:43:44;;;;;;;4.55;3.08;;;1.80;99.90;;;;;;5091287;28;20054;-68
2021/01/07 02:46:10;;;;;;;5.25;3.72;;;1.80;99.90;;;;;;5079432;28;20062;-69
2021/01/07 02:48:35;;;;;;;7.35;4.65;;;1.80;99.90;;;;;;5089258;28;20147;-68
2021/01/07 02:51:01;;;;;;;4.50;3.42;;;1.80;99.90;;;;;;5090921;28;20028;-68
2021/01/07 02:53:26;;;;;;;3.45;3.15;;;1.80;99.90;;;;;;5091782;28;20028;-68
2021/01/07 02:55:52;;;;;;;4.18;2.90;;;1.80;99.90;;;;;;5091558;28;20020;-69
2021/01/07 02:58:17;;;;;;;3.92;3.25;;;1.90;99.90;;;;;;5090517;28;20024;-69
2021/01/07 03:00:43;;;;;;;6.40;4.78;;;1.90;99.90;;;;;;5091486;28;20476;-68
2021/01/07 03:03:08;;;;;;;3.88;3.47;;;1.90;99.90;;;;;;5091252;28;20032;-68
2021/01/07 03:05:34;;;;;;;4.85;3.60;;;1.90;99.90;;;;;;5090331;28;20024;-68
2021/01/07 03:08:00;;;;;;;4.13;3.50;;;2.00;99.90;;;;;;5091304;28;20039;-68
2021/01/07 03:10:26;;;;;;;4.75;2.90;;;2.00;99.90;;;;;;5090331;28;20024;-68
2021/01/07 03:12:51;;;;;;;5.55;3.22;;;2.00;99.90;;;;;;5091359;28;20047;-68
2021/01/07 03:15:17;;;;;;;3.45;3.00;;;2.00;99.90;;;;;;5091077;28;20024;-68
2021/01/07 03:17:42;;;;;;;5.60;2.97;;;2.00;99.90;;;;;;5090365;28;20028;-69
2021/01/07 03:20:13;;;;;;;2.70;1.95;;;2.00;99.90;;;;;;5091440;28;20036;-68
2021/01/07 03:22:40;;;;;;;2.97;2.63;;;2.00;99.90;;;;;;5089670;28;20030;-69
2021/01/07 03:25:10;;;;;;;3.13;2.45;;;2.10;99.90;;;;;;5090455;28;20043;-69
2021/01/07 03:27:37;;;;;;;3.63;2.30;;;2.10;99.90;;;;;;5090725;28;20077;-69
2021/01/07 03:30:07;;;;;;;3.47;2.58;;;2.20;99.90;;;;;;5081681;28;20024;-69
2021/01/07 03:32:33;;;;;;;5.07;3.63;;;2.20;99.90;;;;;;5085840;28;20038;-68
2021/01/07 03:34:58;;;;;;;5.47;4.30;;;2.20;99.90;;;;;;5072995;28;20024;-68
2021/01/07 03:37:24;;;;;;;6.97;2.95;;;2.20;99.90;;;;;;5070647;28;20407;-68
2021/01/07 03:39:49;;;;;;;4.18;3.05;;;2.30;99.90;;;;;;5069873;28;20036;-68
2021/01/07 03:42:15;;;;;;;5.25;2.70;;;2.30;99.90;;;;;;5074486;28;20046;-68
2021/01/07 03:44:41;;;;;;;3.55;2.75;;;2.30;99.90;;;;;;5070414;28;20032;-69
2021/01/07 03:47:06;;;;;;;5.90;3.00;;;2.30;99.90;;;;;;5075981;28;20047;-69
2021/01/07 03:49:32;;;;;;;4.57;3.20;;;2.30;99.90;;;;;;5090817;28;20146;-69
2021/01/07 03:51:57;;;;;;;4.88;3.50;;;2.30;99.90;;;;;;5091373;28;20107;-69
2021/01/07 03:54:23;;;;;;;5.63;4.07;;;2.40;99.90;;;;;;5090085;28;20056;-69
2021/01/07 03:56:48;;;;;;;4.80;3.90;;;2.40;99.90;;;;;;5090705;28;20051;-69
2021/01/07 03:59:14;;;;;;;5.18;4.05;;;2.40;99.90;;;;;;5090631;28;20547;-69
2021/01/07 04:01:40;;;;;;;7.75;5.55;;;2.40;99.90;;;;;;5090352;28;20032;-69
2021/01/07 04:04:05;;;;;;;8.60;4.88;;;2.40;99.90;;;;;;5090694;28;20384;-69
2021/01/07 04:06:31;;;;;;;6.32;3.97;;;2.40;99.90;;;;;;5090695;28;20028;-69
2021/01/07 04:08:56;;;;;;;6.82;4.15;;;2.40;99.90;;;;;;5089923;28;20050;-69
2021/01/07 04:11:22;;;;;;;6.03;4.45;;;2.40;99.90;;;;;;5090448;28;20023;-69
2021/01/07 04:13:47;;;;;;;5.72;4.28;;;2.40;99.90;;;;;;5089838;28;20020;-69
2021/01/07 04:16:13;;;;;;;5.35;3.72;;;2.40;99.90;;;;;;5090239;28;20442;-69
2021/01/07 04:18:39;;;;;;;5.00;4.07;;;2.40;99.90;;;;;;5090678;28;20517;-68
2021/01/07 04:21:05;;;;;;;6.35;3.72;;;2.40;99.90;;;;;;5091239;28;20119;-68
2021/01/07 04:23:30;;;;;;;5.35;3.95;;;2.40;99.90;;;;;;5094370;28;20020;-68
2021/01/07 04:25:56;;;;;;;6.30;3.92;;;2.40;99.90;;;;;;5094521;28;20040;-69
2021/01/07 04:28:21;;;;;;;4.93;3.63;;;2.40;99.90;;;;;;5093628;28;20101;-68
2021/01/07 04:30:47;;;;;;;4.88;3.38;;;2.40;99.90;;;;;;5094452;28;20027;-68
2021/01/07 04:33:12;;;;;;;6.75;3.67;;;2.40;99.90;;;;;;5094559;28;20103;-68
2021/01/07 04:35:38;;;;;;;6.43;3.38;;;2.40;99.90;;;;;;5093598;28;20075;-68
2021/01/07 04:38:04;;;;;;;4.78;3.25;;;2.40;99.90;;;;;;5095160;28;20024;-68
2021/01/07 04:40:30;;;;;;;4.97;3.20;;;2.40;99.90;;;;;;5094956;28;20472;-68
2021/01/07 04:42:56;;;;;;;4.63;3.30;;;2.40;99.90;;;;;;5093253;28;20465;-68
2021/01/07 04:45:22;;;;;;;4.72;2.90;;;2.30;99.90;;;;;;5088563;28;20032;-68
2021/01/07 04:47:49;;;;;;;6.40;3.47;;;2.40;99.90;;;;;;5085687;28;20020;-68
2021/01/07 04:50:15;;;;;;;5.15;3.60;;;2.50;99.90;;;;;;5093314;28;20078;-68
2021/01/07 04:52:41;;;;;;;6.57;3.40;;;2.40;99.90;;;;;;5094012;28;20059;-68
2021/01/07 04:55:08;;;;;;;7.22;3.30;;;2.50;99.90;;;;;;5093909;28;20024;-68
2021/01/07 04:57:34;;;;;;;5.43;3.13;;;2.50;99.90;;;;;;5093203;28;20036;-68
2021/01/07 05:00:00;;;;;;;3.33;2.70;;;2.50;99.90;;;;;;5093797;28;20488;-68
2021/01/07 05:02:27;;;;;;;6.10;3.67;;;2.50;99.90;;;;;;5093984;28;20020;-68
2021/01/07 05:04:53;;;;;;;2.97;2.55;;;2.60;99.90;;;;;;5093647;28;20107;-68
2021/01/07 05:07:20;;;;;;;6.32;3.67;;;2.50;99.90;;;;;;5093998;28;20107;-68
2021/01/07 05:09:46;;;;;;;4.82;3.78;;;2.60;99.90;;;;;;5094267;28;20028;-68
2021/01/07 05:12:13;;;;;;;6.30;4.57;;;2.60;99.90;;;;;;5093385;28;20028;-69
2021/01/07 05:14:43;;;;;;;4.25;3.85;;;2.60;99.90;;;;;;5094924;28;20020;-69
2021/01/07 05:17:11;;;;;;;4.45;3.47;;;2.60;99.90;;;;;;5094126;28;20479;-68
2021/01/07 05:19:37;;;;;;;6.28;3.47;;;2.60;99.90;;;;;;5093759;28;20039;-68
2021/01/07 05:22:03;;;;;;;7.25;3.25;;;2.60;99.90;;;;;;5094327;28;20104;-69
2021/01/07 05:24:29;;;;;;;5.03;4.00;;;2.60;99.90;;;;;;5092525;28;20472;-68
2021/01/07 05:26:55;;;;;;;3.72;2.92;;;2.60;99.90;;;;;;5093417;28;20048;-68
2021/01/07 05:29:21;;;;;;;3.63;2.70;;;2.60;99.90;;;;;;5093216;28;20077;-68
2021/01/07 05:31:51;;;;;;;2.60;2.25;;;2.60;99.90;;;;;;5092683;28;20043;-69
2021/01/07 05:34:17;;;;;;;3.22;2.03;;;2.60;99.90;;;;;;5093064;28;20631;-69
2021/01/07 05:36:42;;;;;;;5.63;2.70;;;2.60;99.90;;;;;;5093683;28;20081;-68
2021/01/07 05:39:08;;;;;;;6.28;4.13;;;2.60;99.90;;;;;;5092831;28;20040;-68
2021/01/07 05:41:34;;;;;;;3.60;2.10;;;2.60;99.90;;;;;;5093183;28;20106;-68
2021/01/07 05:44:05;;;;;;;3.75;1.95;;;2.60;99.90;;;;;;5093782;28;20032;-70
2021/01/07 05:46:32;;;;;;;2.72;1.20;;;2.60;99.90;;;;;;5078217;28;20374;-68
2021/01/07 05:48:57;;;;;;;1.38;1.23;;;2.60;99.90;;;;;;5093396;28;20520;-69
2021/01/07 05:51:25;;;;;;;1.17;1.05;;;2.60;99.90;;;;;;5093005;28;20058;-68
2021/01/07 05:53:54;;;;;;;1.50;0.90;;;2.60;99.90;;;;;;5092434;28;20035;-69
2021/01/07 05:56:21;;;;;;;1.70;0.90;;;2.50;99.90;;;;;;5093382;28;20375;-68
2021/01/07 05:58:48;;;;;;;2.55;1.15;;;2.60;99.90;;;;;;5093390;28;20360;-69
2021/01/07 06:01:18;;;;;;;2.65;0.90;;;2.60;99.90;;;;;;5093122;28;20107;-69
2021/01/07 06:03:53;;;;;;;0.80;0.73;;;2.50;99.90;;;;;;5093816;28;20078;-69
2021/01/07 06:06:21;;;;;;;2.08;1.20;;;2.60;99.90;;;;;;5092083;28;20058;-68
2021/01/07 06:08:54;;;;;;;2.33;1.30;;;2.50;99.90;;;;;;5093026;28;20059;-68
2021/01/07 06:11:21;;;;;;;1.08;0.90;;;2.50;99.90;;;;;;5092872;28;20024;-69
2021/01/07 06:13:49;;;;;;;2.33;0.80;;;2.60;99.90;;;;;;5092087;28;20125;-69
2021/01/07 06:16:17;;;;;;;1.00;0.90;;;2.60;99.90;;;;;;5092639;28;20032;-68
2021/01/07 06:18:42;;;;;;;1.65;1.55;;;2.60;99.90;;;;;;5092644;28;20039;-68
2021/01/07 06:21:09;;;;;;;1.67;1.48;;;2.50;99.90;;;;;;5091909;28;20325;-68
2021/01/07 06:23:42;;;;;;;2.13;1.40;;;2.50;99.90;;;;;;5092566;28;20032;-68
2021/01/07 06:26:25;;;;;;;3.15;2.25;;;2.50;99.90;;;;;;5092285;28;20055;-68
2021/01/07 06:29:00;;;;;;;3.42;2.47;;;2.50;99.90;;;;;;5091756;28;20040;-68
2021/01/07 06:31:36;;;;;;;5.50;2.00;;;2.50;99.90;;;;;;5091731;28;20121;-68
2021/01/07 06:34:05;;;;;;;1.98;1.55;;;2.50;99.90;;;;;;5073638;28;20024;-68
2021/01/07 06:36:38;;;;;;;2.75;1.58;;;2.50;99.90;;;;;;5071206;28;20020;-68
2021/01/07 06:39:06;;;;;;;0.80;0.80;;;2.50;99.90;;;;;;5072030;28;20083;-68
2021/01/07 06:41:31;;;;;;;3.15;0.95;;;2.50;99.90;;;;;;5070855;28;20035;-68
2021/01/07 06:43:57;;;;;;;2.28;1.40;;;2.40;99.90;;;;;;5071361;28;20310;-69
2021/01/07 06:46:44;;;;;;;1.65;1.33;;;2.50;99.90;;;;;;5072695;28;20025;-68
2021/01/07 06:49:19;;;;;;;2.28;1.30;;;2.40;99.90;;;;;;5080465;28;20028;-69
2021/01/07 06:52:01;;;;;;;2.75;1.40;;;2.40;99.90;;;;;;5091842;28;20035;-69
2021/01/07 06:54:32;;;;;;;1.77;1.45;;;2.50;99.90;;;;;;5091709;28;20476;-68
2021/01/07 06:56:59;;;;;;;4.32;1.25;;;2.40;99.90;;;;;;5091110;28;20027;-68
2021/01/07 06:59:24;;;;;;;2.08;1.40;;;2.40;99.90;;;;;;5091710;28;20036;-69
2021/01/07 07:01:56;;;;;;;4.45;1.60;;;2.40;99.90;;;;;;5086872;28;20036;-68
2021/01/07 07:04:26;;;;;;;1.60;1.40;;;2.40;99.90;;;;;;5077993;28;20029;-68
2021/01/07 07:07:07;;;;;;;;;;;2.40;99.90;;;;;;5071257;28;20020;-68
2021/01/07 07:09:41;;;;;;;2.10;1.38;;;2.40;99.90;;;;;;5070769;28;20228;-68
2021/01/07 07:12:07;;;;;;;2.05;1.23;;;2.40;99.90;;;;;;5075835;28;20155;-68
2021/01/07 07:14:33;;;;;;;2.47;1.40;;;2.40;99.90;;;;;;5072334;28;20532;-68
2021/01/07 07:17:09;;;;;;;2.63;1.50;;;2.40;99.90;;;;;;5070019;28;20025;-68
2021/01/07 07:19:37;;;;;;;1.27;1.17;;;2.40;99.90;;;;;;5075504;28;20040;-69
2021/01/07 07:22:03;;;;;;;2.05;1.20;;;2.40;99.90;;;;;;5071946;28;20016;-68
2021/01/07 07:24:50;;;;;;;1.20;1.10;;;2.40;99.90;;;;;;5070076;28;20027;-68
2021/01/07 07:27:18;;;;;;;2.92;1.42;;;2.40;99.90;;;;;;5070177;28;20119;-68
2021/01/07 07:29:46;;;;;;;2.53;1.42;;;2.50;99.90;;;;;;5070288;28;20035;-68
2021/01/07 07:32:27;;;;;;;4.22;1.58;;;2.50;99.90;;;;;;5069885;28;20027;-69
2021/01/07 07:34:54;;;;;;;1.00;0.90;;;2.40;99.90;;;;;;5070668;28;20039;-68
2021/01/07 07:37:25;;;;;;;1.45;0.75;;;2.40;99.90;;;;;;5073330;28;20024;-69
2021/01/07 07:39:58;;;;;;;1.05;0.82;;;2.50;99.90;;;;;;5069979;28;20067;-68
2021/01/07 07:42:26;;;;;;;3.25;1.00;;;2.50;99.90;;;;;;5070609;28;20476;-68
2021/01/07 07:44:51;;;;;;;1.13;0.80;;;2.50;99.90;;;;;;5072159;28;20043;-68
2021/01/07 07:47:20;;;;;;;3.38;1.02;;;2.50;99.90;;;;;;5086793;28;20396;-68
2021/01/07 07:49:52;;;;;;;1.90;1.35;;;2.50;99.90;;;;;;5089229;28;20023;-69
2021/01/07 07:52:22;;;;;;;2.10;1.80;;;2.60;99.90;;;;;;5080883;28;20396;-69
2021/01/07 07:55:02;;;;;;;1.67;1.47;;;2.60;99.90;;;;;;5087678;28;20373;-67
2021/01/07 07:57:27;;;;;;;2.25;1.25;;;2.60;99.90;;;;;;5081716;28;20048;-68
2021/01/07 07:59:53;;;;;;;1.42;1.25;;;2.70;99.90;;;;;;5087755;28;20059;-68
2021/01/07 08:02:19;;;;;;;2.30;1.40;;;2.70;99.90;;;;;;5087041;28;20018;-69
2021/01/07 08:04:44;;;;;;;2.72;1.20;;;2.70;99.90;;;;;;5089321;28;20119;-69
2021/01/07 08:07:10;;;;;;;2.25;1.52;;;2.60;99.90;;;;;;5086097;28;20104;-69
2021/01/07 08:09:36;;;;;;;1.88;1.40;;;2.60;99.90;;;;;;5089363;28;20099;-69
2021/01/07 08:12:01;;;;;;;3.38;2.22;;;2.60;99.90;;;;;;5082135;28;20084;-69
2021/01/07 08:14:30;;;;;;;2.92;2.70;;;2.60;99.90;;;;;;5089047;28;20020;-69
2021/01/07 08:16:59;;;;;;;4.65;4.20;;;2.70;99.90;;;;;;5088629;28;20099;-69
2021/01/07 08:19:33;;;;;;;5.30;4.30;;;2.70;99.90;;;;;;5089981;28;20077;-69
2021/01/07 08:21:59;;;;;;;8.55;4.53;;;2.70;99.90;;;;;;5077319;28;20027;-69
2021/01/07 08:24:25;;;;;;;5.20;4.70;;;2.70;99.90;;;;;;5070615;28;20048;-69
2021/01/07 08:27:12;;;;;;;6.95;5.00;;;2.70;99.90;;;;;;5070499;28;20497;-67
2021/01/07 08:29:41;;;;;;;6.50;4.18;;;2.70;99.90;;;;;;5070665;28;20165;-68
2021/01/07 08:32:10;;;;;;;6.22;4.57;;;2.70;99.90;;;;;;5077008;28;20046;-67
2021/01/07 08:34:36;;;;;;;9.32;5.13;;;2.80;99.90;;;;;;5070982;28;20047;-67
2021/01/07 08:37:17;;;;;;;8.70;6.15;;;2.70;99.90;;;;;;5070624;28;20413;-68
2021/01/07 08:39:43;;;;;;;9.05;5.75;;;2.80;99.90;;;;;;5069944;28;20050;-66
2021/01/07 08:42:09;;;;;;;6.15;5.55;;;2.80;99.90;;;;;;5074963;28;20025;-68
2021/01/07 08:44:36;;;;;;;6.03;4.63;;;2.80;99.90;;;;;;5072955;28;20538;-68
2021/01/07 08:47:02;;;;;;;4.60;3.95;;;2.80;99.90;;;;;;5076138;28;20099;-69
2021/01/07 08:49:28;;;;;;;3.92;3.25;;;2.90;99.90;;;;;;5090247;28;20028;-69
2021/01/07 08:51:58;;;;;;;4.63;2.85;;;2.90;99.90;;;;;;5090934;28;20095;-68
2021/01/07 08:54:24;;;;;;;3.35;3.03;;;2.90;99.90;;;;;;5090574;28;20036;-68
2021/01/07 08:56:52;;;;;;;3.05;2.75;;;2.90;99.90;;;;;;5089876;28;20032;-69
2021/01/07 08:59:25;;;;;;;3.90;2.70;;;3.00;99.90;;;;;;5090410;28;20028;-69
2021/01/07 09:01:58;;;;;;;1.92;1.60;;;3.00;99.90;;;;;;5090838;28;20028;-68
2021/01/07 09:04:24;;;;;;;2.65;1.23;;;3.00;99.90;;;;;;5074532;28;20025;-69
2021/01/07 09:07:09;;;;;;;1.45;1.08;;;3.10;99.90;;;;;;5071689;28;20023;-70
2021/01/07 09:09:56;;;;;;;1.52;1.10;;;3.20;99.90;;;;;;5072911;28;20069;-69
2021/01/07 09:12:32;;;;;;;1.17;1.05;;;3.20;99.90;;;;;;5073168;28;20115;-70
2021/01/07 09:15:11;;;;;;;2.20;1.10;;;3.20;99.90;;;;;;5073770;28;20376;-69
2021/01/07 09:17:46;;;;;;;2.42;1.38;;;3.20;99.90;;;;;;5071571;28;20032;-69
2021/01/07 09:20:16;;;;;;;3.53;0.80;;;3.20;99.90;;;;;;5073493;28;20040;-69
2021/01/07 09:22:42;;;;;;;1.15;0.95;;;3.20;99.90;;;;;;5073360;28;20534;-69
2021/01/07 09:25:17;;;;;;;3.58;1.15;;;3.30;99.90;;;;;;5075283;28;20507;-70
2021/01/07 09:27:43;;;;;;;1.85;1.10;;;3.30;99.90;;;;;;5073008;28;20036;-69
2021/01/07 09:30:10;;;;;;;2.47;0.70;;;3.30;99.90;;;;;;5074251;28;20063;-69
2021/01/07 09:32:35;;;;;;;1.13;1.02;;;3.30;99.90;;;;;;5072548;28;20029;-69
2021/01/07 09:35:01;;;;;;;1.98;0.88;;;3.20;99.90;;;;;;5073493;28;20372;-69
2021/01/07 09:37:26;;;;;;;1.95;0.68;;;3.20;99.90;;;;;;5076536;28;20040;-69
2021/01/07 09:39:54;;;;;;;1.30;0.90;;;3.20;99.90;;;;;;5093289;28;20109;-69
2021/01/07 09:42:22;;;;;;;1.08;0.88;;;3.20;99.90;;;;;;5084900;28;20099;-68
2021/01/07 09:44:49;;;;;;;2.08;0.93;;;3.10;99.90;;;;;;5088902;28;20062;-69
2021/01/07 09:47:15;;;;;;;2.47;0.82;;;3.20;99.90;;;;;;5080844;28;20016;-69
2021/01/07 09:49:41;;;;;;;3.38;0.68;;;3.20;99.90;;;;;;5085649;28;20035;-69
2021/01/07 09:52:07;;;;;;;2.75;0.80;;;3.20;99.90;;;;;;5092903;28;20055;-69
2021/01/07 09:54:33;;;;;;;4.15;0.75;;;3.20;99.90;;;;;;5080478;28;20502;-69
2021/01/07 09:57:00;;;;;;;7.15;1.25;;;3.20;99.90;;;;;;5084550;28;20415;-69
2021/01/07 09:59:28;;;;;;;1.98;0.43;;;3.20;99.90;;;;;;5071886;28;20428;-69
2021/01/07 10:02:00;;;;;;;0.90;0.40;;;3.20;99.90;;;;;;5073796;28;20029;-69
2021/01/07 10:04:26;;;;;;;0.70;0.50;;;3.20;99.90;;;;;;5079382;28;20031;-67
2021/01/07 10:06:53;;;;;;;1.08;0.30;;;3.10;99.90;;;;;;5072080;28;20020;-68
2021/01/07 10:09:19;;;;;;;0.45;0.20;;;3.10;99.90;;;;;;5072539;28;20062;-68
2021/01/07 10:11:49;;;;;;;0.65;0.25;;;3.10;99.90;;;;;;5072556;28;20029;-68
2021/01/07 10:14:15;;;;;;;;;;;3.10;99.90;;;;;;5075051;28;20059;-67
2021/01/07 10:16:40;;;;;;;0.17;0.17;;;3.10;99.90;;;;;;5072627;28;20348;-69
2021/01/07 10:19:06;;;;;;;1.05;0.35;;;3.10;99.90;;;;;;5072403;28;20060;-69
2021/01/07 10:21:38;;;;;;;1.23;0.30;;;3.10;99.90;;;;;;5076492;28;20039;-69
2021/01/07 10:24:05;;;;;;;3.05;0.70;;;3.20;99.90;;;;;;5072106;28;20544;-70
2021/01/07 10:26:32;;;;;;;3.58;0.50;;;3.20;99.90;;;;;;5070156;28;20052;-68
2021/01/07 10:28:58;;;;;;;1.95;0.40;;;3.30;99.90;;;;;;5085384;28;20025;-68
2021/01/07 10:31:24;;;;;;;5.47;0.73;;;3.30;99.90;;;;;;5087651;28;20028;-68
2021/01/07 10:33:50;;;;;;;5.80;0.82;;;3.30;99.90;;;;;;5079234;28;20094;-67
2021/01/07 10:36:17;;;;;;;3.25;0.50;;;3.30;99.90;;;;;;5091030;28;20062;-67
2021/01/07 10:38:47;;;;;;;4.10;0.65;;;3.30;99.90;;;;;;5089348;28;20056;-69
2021/01/07 10:41:14;;;;;;;0.30;0.30;;;3.30;99.90;;;;;;5084534;28;20451;-68
2021/01/07 10:43:40;;;;;;;1.20;0.50;;;3.30;99.90;;;;;;5087695;28;20356;-67
2021/01/07 10:46:06;;;;;;;3.28;0.35;;;3.30;99.90;;;;;;5086501;28;20020;-67
2021/01/07 10:48:35;;;;;;;2.97;0.60;;;3.40;99.90;;;;;;5091395;28;20024;-68
2021/01/07 10:51:02;;;;;;;2.17;0.50;;;3.40;99.90;;;;;;5092194;28;20047;-67
2021/01/07 10:53:28;;;;;;;3.50;0.50;;;3.40;99.90;;;;;;5088792;28;20023;-69
2021/01/07 10:56:01;;;;;;;2.30;0.50;;;3.40;99.90;;;;;;5088250;28;20016;-67
2021/01/07 10:58:40;;;;;;;1.67;0.80;;;3.50;99.90;;;;;;5088298;28;20031;-67
2021/01/07 11:01:56;;;;;;;6.78;0.90;;;3.50;99.90;;;;;;5088763;28;20035;-67
2021/01/07 11:04:44;;;;;;;13.07;1.98;;;3.50;99.90;;;;;;5025230;28;20091;-67
2021/01/07 11:07:40;;;;;;;3.15;0.95;;;3.60;99.90;;;;;;5071843;28;20040;-67
2021/01/07 11:10:07;;;;;;;3.70;1.35;;;3.50;99.90;;;;;;5091209;28;20027;-67
2021/01/07 11:12:41;;;;;;;2.45;0.82;;;3.60;99.90;;;;;;5091631;28;20658;-67
2021/01/07 11:15:16;;;;;;;4.63;1.17;;;3.60;99.90;;;;;;5092188;28;20113;-67
2021/01/07 11:17:49;;;;;;;2.45;0.80;;;3.60;99.90;;;;;;5091435;28;20027;-69
2021/01/07 11:20:16;;;;;;;2.40;1.25;;;3.60;99.90;;;;;;5091227;28;20476;-67
2021/01/07 11:22:44;;;;;;;4.20;1.20;;;3.60;99.90;;;;;;5091975;28;20125;-69
2021/01/07 11:25:10;;;;;;;1.90;1.02;;;3.60;99.90;;;;;;5090937;28;20079;-68
2021/01/07 11:27:37;;;;;;;6.57;0.82;;;3.60;99.90;;;;;;5091621;28;20065;-67
2021/01/07 11:30:05;;;;;;;3.70;0.65;;;3.50;99.90;;;;;;5090503;28;20034;-68
2021/01/07 11:32:31;;;;;;;4.15;1.00;;;3.50;99.90;;;;;;5086248;28;20024;-67
2021/01/07 11:34:59;;;;;;;0.88;0.60;;;3.50;99.90;;;;;;5091866;28;20073;-67
2021/01/07 11:37:52;;;;;;;2.97;0.70;;;3.50;99.90;;;;;;5078655;28;20020;-67
2021/01/07 11:40:25;;;;;;;8.80;1.10;;;3.50;99.90;;;;;;5091312;28;20500;-67
2021/01/07 11:42:55;;;;;;;4.88;0.88;;;3.50;99.90;;;;;;5086583;28;20488;-67
2021/01/07 11:45:29;;;;;;;2.63;0.98;;;3.40;99.90;;;;;;5085090;28;20033;-68
2021/01/07 11:48:01;;;;;;;1.02;0.93;;;3.50;99.90;;;;;;5083814;28;20066;-68
2021/01/07 11:50:36;;;;;;;3.00;1.00;;;3.50;99.90;;;;;;5091206;28;20062;-68
2021/01/07 11:53:02;;;;;;;6.13;1.25;;;3.50;99.90;;;;;;5091026;28;20039;-68
2021/01/07 11:55:28;;;;;;;3.15;0.70;;;3.50;99.90;;;;;;5091268;28;20027;-67
2021/01/07 11:57:56;;;;;;;3.58;0.80;;;3.50;99.90;;;;;;5091624;28;20490;-68
2021/01/07 12:00:22;;;;;;;4.50;1.10;;;3.60;99.90;;;;;;5090773;28;20044;-68
2021/01/07 12:02:49;;;;;;;5.65;1.10;;;3.60;99.90;;;;;;5084260;28;20483;-68
2021/01/07 12:05:20;;;;;;;3.03;0.80;;;3.60;99.90;;;;;;5070814;28;20480;-68
2021/01/07 12:08:03;;;;;;;2.63;0.82;;;3.70;99.90;;;;;;5083283;28;20027;-68
2021/01/07 12:10:30;;;;;;;4.22;1.80;;;3.70;99.90;;;;;;5084690;28;20070;-68
2021/01/07 12:13:23;;;;;;;3.15;0.80;;;3.80;99.90;;;;;;5088662;28;20111;-68
2021/01/07 12:15:53;;;;;;;5.85;1.20;;;3.80;99.90;;;;;;5089278;28;20365;-69
2021/01/07 12:18:20;;;;;;;4.13;1.40;;;3.90;99.90;;;;;;5090051;28;20514;-69
2021/01/07 12:20:46;;;;;;;10.68;2.25;;;3.90;99.90;;;;;;5084785;28;20370;-68
2021/01/07 12:23:15;;;;;;;10.02;1.08;;;4.00;99.90;;;;;;5082869;28;20024;-68
2021/01/07 12:25:41;;;;;;;5.70;2.17;;;4.10;99.90;;;;;;5085675;28;20062;-69
2021/01/07 12:28:14;;;;;;;8.02;1.00;;;4.20;99.90;;;;;;5085695;28;20035;-68
2021/01/07 12:30:45;;;;;;;8.25;2.35;;;4.20;99.90;;;;;;5089904;28;20032;-68
2021/01/07 12:33:39;;;;;;;3.20;0.68;;;4.30;99.90;;;;;;5073578;28;20418;-68
2021/01/07 12:36:11;;;;;;;5.85;1.58;;;4.40;99.90;;;;;;5070933;28;20021;-68
2021/01/07 12:39:11;;;;;;;4.03;0.80;;;4.50;99.90;;;;;;5070600;28;20040;-67
2021/01/07 12:41:48;;;;;;;5.65;0.88;;;4.50;99.90;;;;;;5070298;28;20024;-68
2021/01/07 12:44:16;;;;;;;4.40;0.82;;;4.60;99.90;;;;;;5074529;28;20107;-68
2021/01/07 12:46:45;;;;;;;5.80;0.93;;;4.60;99.90;;;;;;5077030;28;20231;-68
2021/01/07 12:49:13;;;;;;;5.97;1.40;;;4.70;99.90;;;;;;5094234;28;20127;-68
2021/01/07 12:51:40;;;;;;;3.75;0.70;;;4.70;99.90;;;;;;5094852;28;20149;-68
2021/01/07 12:54:06;;;;;;;5.18;1.35;;;4.70;99.90;;;;;;5095032;28;20024;-68
2021/01/07 12:56:59;;;;;;;4.72;1.20;;;4.80;99.90;;;;;;5093893;28;20828;-69
2021/01/07 12:59:30;;;;;;;11.57;1.20;;;4.80;99.90;;;;;;5087779;28;20036;-68
2021/01/07 13:02:08;;;;;;;4.38;1.17;;;4.90;99.90;;;;;;5094195;28;20028;-68
2021/01/07 13:04:48;;;;;;;5.75;0.95;;;4.90;99.90;;;;;;5094931;28;20438;-68